Terminal Aerodrome Forecast
Issued by NWS

Home | Current Version | Previous Version | Text Only | Print | Product List | Glossary On
Versions: 1 2 3 4 5 6 7 8 9 10 11 12 13 14 15 16 17 18
000
FTUS45 KABQ 262320
TAFROW
TAF
KROW 262320Z 2700/2724 14008KT P6SM FEW050
      TEMPO 2703/2706 VRB20G35KT 5SM -TSRA OVC030CB
     FM270600 17006KT P6SM BKN060
     FM271600 16010KT P6SM SCT060
     FM272200 17013G20KT P6SM VCTS BKN070CB=

USA.gov is the U.S. government's official web portal to all federal, state and local government web resources and services.